Avoca, IA (51521)

13:01 CDT le 28 mai 2015 (GMT -0500)
Harlan Municipal | | Change Station
CLOSE
Current Station
Aéroport
Location: Harlan,
Altitude: 1230 ft
Stations météo à proximité

Alt. 1230 ft 41.58 °N, 95.34 °W | Updated 26 minutes ago

Ciel dégagé
Ciel dégagé
72 ° F
Paraît 72 ° F
N
12
Vent Variable Vent de SE

Aujourd'hui
Haut(e) -- | Bas -- ° F
--% Risque de précip.
Hier
Haut(e) -- | Bas -- ° F
Precip. -- pouce
5:52 AM 8:45 PM
Lune gibbeuse croissante, 77% visible
Pression 30.07 pouce
Visibilité 10.0 Miles terrestres
Nuages Nuages épars 9000 ft
Point de rosée 64 ° F
Humidité 78%
Précipitations 0.00 pouce
Profondeur de la couche neigeuse Non disponible.
UV 9 sur 12
Pollen 5.30 sur 12
Qualité de l'air Non disponible.
Flu Activity Sporadic
METAR KHNR 281735Z AUTO 14010KT 10SM SCT090 22/18 A3007 RMK AO2

More Conditions Fewer Conditions

Pression 30.07 pouce
Visibilité 10.0 Miles terrestres
Nuages Nuages épars 9000 ft
Point de rosée 64 ° F
Humidité 78%
Précipitations 0.00 pouce
Profondeur de la couche neigeuse Non disponible.
UV 9 sur 12
Pollen 5.30 sur 12
Qualité de l'air Non disponible.
Flu Activity Sporadic
METAR KHNR 281735Z AUTO 14010KT 10SM SCT090 22/18 A3007 RMK AO2

More Conditions Fewer Conditions

10-Day Weather Forecast

Almanac

Astronomie

May. 28, 2015 Lever Coucher
Temps réel
Crépuscule civil
Crépuscule nautique
Crépuscule astronomique
Lune
Durée de lumière visible
Longueur du jour
Tomorrow will be .
, % of the Moon is Illuminated

Extrêmes aujourd'hui

State Highs State Lows

Community

WunderPhotos

Upload Photos

1,825,007 Photos téléchargées !

WunderBlogs® & News

Nearby

Qualité de l'air

  Qualité de l'air Indice de la qualité de l'air Polluant
Not available.

Épaisseur de neige

Station Depth Altitude

Activité sismique

Ville Distance Mag. Time & Date
Minimum magnitude displayed is 2.5.

Températures des eaux côtières

Lieu Température

Stations

Stations météo à proximité

Emplacement de la station Température Refroidissement éolien Point de rosée Humidité Vent Precip. Alt. Mise à jour Type